Tocantinia, Brazil
Current Conditions -  °F | °C
As of 8:00 PM on Wednesday 22 Oct 2014 (Local Time) from SBPJ Reporting Station
Light Rain Light Rain  
Wind Chill: 72°   Ceiling: 7000
Heat Index: 72°   Visibility: 6mi
Dew Point: 68°   Wind: 5mph
Humidity: 88%   Direction: 70°ENE
Pressure: 29.94"   Gusts: NA
Location:  9.56°S, 48.38°W
Report Text: SBPJ 222300Z 07004KT 9999 -RA FEW006 OVC070 22/20 Q1014 RETS
Loading
Personal Weather Stations






























Interactive Weather Map
Tropical Storm Tracking
New forecast layout! Learn more

10-Day Weather Forecast

Advertisements
Track Severe Weather on mobile